Time;durP1;ratioP1;P1;durP2;ratioP2;P2;SDS_P1;SDS_P2;PMS_P1;PMS_P2;Temp;Humidity;BMP_temperature;BMP_pressure;BME280_temperature;BME280_humidity;BME280_pressure;Samples;Min_cycle;Max_cycle;Signal;HPM_P1;HPM_P2
2021/07/20 00:00:22;;;;;;;13.00;6.43;;;;;;;19.19;49.88;102046.91;4912532;28;119362;-74
2021/07/20 00:02:52;;;;;;;13.77;6.15;;;;;;;19.18;49.86;102039.78;4903380;28;124086;-74
2021/07/20 00:05:21;;;;;;;12.52;6.40;;;;;;;19.16;49.96;102041.72;4909861;28;123095;-75
2021/07/20 00:07:57;;;;;;;13.70;6.25;;;;;;;19.14;49.83;102048.16;4911705;28;120148;-75
2021/07/20 00:10:31;;;;;;;13.13;6.00;;;;;;;19.10;49.79;102046.59;4902088;28;119806;-74
2021/07/20 00:12:58;;;;;;;14.95;6.95;;;;;;;19.05;50.00;102039.69;4910750;28;124469;-74
2021/07/20 00:15:25;;;;;;;12.98;6.47;;;;;;;19.04;49.95;102042.47;4910957;28;124047;-75
2021/07/20 00:17:57;;;;;;;12.73;6.53;;;;;;;19.01;50.06;102048.03;4915477;28;119634;-74
2021/07/20 00:20:27;;;;;;;14.15;6.82;;;;;;;18.96;50.02;102050.13;4910140;28;118191;-74
2021/07/20 00:22:55;;;;;;;14.98;6.93;;;;;;;18.95;50.20;102048.38;4914011;28;124346;-74
2021/07/20 00:25:23;;;;;;;14.50;6.53;;;;;;;18.90;50.04;102045.16;4918825;28;123957;-74
2021/07/20 00:27:50;;;;;;;13.25;6.53;;;;;;;18.88;50.08;102047.91;4897134;28;119225;-74
2021/07/20 00:30:17;;;;;;;13.45;6.40;;;;;;;18.85;50.16;102043.59;4894953;28;117983;-74
2021/07/20 00:32:44;;;;;;;15.02;6.43;;;;;;;18.82;50.39;102049.16;4902374;28;124836;-74
2021/07/20 00:35:12;;;;;;;13.45;6.82;;;;;;;18.78;50.39;102039.53;4909700;28;123961;-74
2021/07/20 00:37:41;;;;;;;12.98;6.50;;;;;;;18.76;50.40;102048.63;4910049;28;117140;-74
2021/07/20 00:40:13;;;;;;;13.73;6.43;;;;;;;18.72;50.50;102047.94;4910316;28;118225;-74
2021/07/20 00:42:40;;;;;;;14.00;6.53;;;;;;;18.70;50.49;102049.84;4885828;28;123355;-74
2021/07/20 00:45:10;;;;;;;17.25;7.43;;;;;;;18.67;50.40;102055.41;4915894;28;124794;-74
2021/07/20 00:47:37;;;;;;;12.43;6.30;;;;;;;18.64;50.64;102056.44;4918470;28;119466;-74
2021/07/20 00:50:08;;;;;;;14.07;6.60;;;;;;;18.61;50.76;102055.75;4918436;28;118661;-74
2021/07/20 00:52:38;;;;;;;14.35;6.55;;;;;;;18.58;50.85;102045.22;4909676;28;123765;-75
2021/07/20 00:55:08;;;;;;;12.57;6.78;;;;;;;18.54;50.70;102044.53;4910926;28;123389;-74
2021/07/20 00:57:35;;;;;;;12.50;6.53;;;;;;;18.52;50.71;102050.97;4911055;28;121205;-74
2021/07/20 01:00:09;;;;;;;15.18;7.47;;;;;;;18.49;50.82;102042.13;4911015;28;120256;-74
2021/07/20 01:02:36;;;;;;;13.48;6.78;;;;;;;18.46;50.88;102042.31;4910445;28;124162;-74
2021/07/20 01:05:11;;;;;;;15.13;6.68;;;;;;;18.43;51.09;102042.50;4911346;28;123838;-74
2021/07/20 01:07:43;;;;;;;14.45;6.57;;;;;;;18.39;51.09;102040.09;4893996;28;119083;-74
2021/07/20 01:10:11;;;;;;;13.45;6.30;;;;;;;18.36;51.04;102035.75;4906922;28;118234;-74
2021/07/20 01:12:41;;;;;;;14.50;6.57;;;;;;;18.33;51.40;102033.28;4908737;28;123363;-74
2021/07/20 01:15:09;;;;;;;14.13;6.53;;;;;;;18.32;51.38;102038.72;4911321;28;124749;-74
2021/07/20 01:17:40;;;;;;;14.25;6.97;;;;;;;18.28;51.26;102038.03;4910154;28;118760;-74
2021/07/20 01:20:15;;;;;;;15.60;6.90;;;;;;;18.24;51.49;102036.50;4911663;28;119362;-74
2021/07/20 01:23:00;;;;;;;14.70;6.15;;;;;;;18.19;51.46;102041.25;4924718;28;123236;-74
2021/07/20 01:25:28;;;;;;;14.30;6.85;;;;;;;18.17;51.45;102043.16;4907622;28;123410;-74
2021/07/20 01:28:02;;;;;;;14.35;6.82;;;;;;;18.13;51.48;102036.25;4911539;28;119745;-74
2021/07/20 01:30:32;;;;;;;14.00;6.80;;;;;;;18.11;51.56;102043.53;4910997;28;119635;-74
2021/07/20 01:33:02;;;;;;;15.63;6.80;;;;;;;18.08;51.63;102034.69;4897258;28;124112;-74
2021/07/20 01:35:30;;;;;;;16.40;7.18;;;;;;;18.06;51.67;102039.28;4897940;28;124221;-75
2021/07/20 01:38:02;;;;;;;14.18;6.47;;;;;;;18.04;51.66;102033.13;4889920;28;119032;-74
2021/07/20 01:40:31;;;;;;;16.25;6.53;;;;;;;18.02;51.49;102037.72;4901806;28;119297;-74
2021/07/20 01:43:02;;;;;;;15.95;6.65;;;;;;;18.02;51.85;102042.22;4914340;28;123277;-74
2021/07/20 01:45:33;;;;;;;17.08;7.07;;;;;;;17.98;51.79;102044.22;4908134;28;124083;-74
2021/07/20 01:48:03;;;;;;;14.25;7.18;;;;;;;17.97;52.02;102042.50;4908702;28;120435;-74
2021/07/20 01:50:34;;;;;;;14.10;6.50;;;;;;;17.93;51.81;102038.25;4894681;28;120091;-74
2021/07/20 01:53:03;;;;;;;14.90;7.15;;;;;;;17.91;51.89;102042.81;4907596;28;123596;-74
2021/07/20 01:55:30;;;;;;;13.77;6.80;;;;;;;17.86;51.88;102031.53;4908754;28;123171;-74
2021/07/20 01:58:00;;;;;;;14.10;6.85;;;;;;;17.84;51.93;102044.13;4908534;28;119085;-74
2021/07/20 02:00:51;;;;;;;14.95;6.93;;;;;;;17.79;51.71;102039.00;4910187;28;119085;-74
2021/07/20 02:03:57;;;;;;;18.40;7.32;;;;;;;17.77;52.19;102037.38;4907590;28;123890;-74
2021/07/20 02:09:18;;;;;;;14.02;6.65;;;;;;;17.69;51.80;102051.19;4909644;28;117927;-74
2021/07/20 02:11:47;;;;;;;13.60;6.75;;;;;;;17.64;51.96;102048.75;4908369;28;118834;-74
2021/07/20 02:14:41;;;;;;;15.07;6.55;;;;;;;17.59;51.99;102056.19;4909472;28;124702;-75
2021/07/20 02:17:33;;;;;;;15.63;6.68;;;;;;;17.55;52.24;102054.63;4900031;28;124424;-74
2021/07/20 02:20:17;;;;;;;15.07;6.78;;;;;;;17.51;52.11;102055.75;4900134;28;119316;-74
2021/07/20 02:23:07;;;;;;;;;;;;;;;17.47;51.81;102051.50;4916321;28;118830;-74
2021/07/20 02:25:38;;;;;;;17.92;7.15;;;;;;;17.47;52.00;102046.16;4916117;28;124378;-74
2021/07/20 02:28:21;;;;;;;;;;;;;;;17.42;51.63;102048.22;4915416;28;123010;-74
2021/07/20 02:30:50;;;;;;;13.43;6.30;;;;;;;17.40;51.76;102044.75;4916642;28;120331;-74
2021/07/20 02:33:19;;;;;;;15.40;7.10;;;;;;;17.37;52.00;102039.59;4915790;28;119247;-74
2021/07/20 02:35:50;;;;;;;15.35;6.43;;;;;;;17.32;52.32;102038.00;4914335;28;122614;-74
2021/07/20 02:38:32;;;;;;;14.15;6.60;;;;;;;17.28;52.15;102036.44;4915175;28;122692;-74
2021/07/20 02:41:01;;;;;;;14.45;6.57;;;;;;;17.24;52.50;102040.25;4914041;28;119433;-74
2021/07/20 02:43:29;;;;;;;15.38;7.13;;;;;;;17.22;52.48;102041.28;4914693;28;119265;-74
2021/07/20 02:45:57;;;;;;;14.88;7.03;;;;;;;17.20;52.67;102038.69;4914287;28;124538;-74
2021/07/20 02:48:25;;;;;;;13.55;6.45;;;;;;;17.17;52.71;102033.47;4914096;28;123437;-74
2021/07/20 02:50:53;;;;;;;15.02;6.93;;;;;;;17.14;52.74;102039.03;4914702;28;119484;-74
2021/07/20 02:53:27;;;;;;;13.63;6.50;;;;;;;17.10;52.87;102032.97;4918806;28;118929;-74
2021/07/20 02:56:07;;;;;;;12.25;6.35;;;;;;;17.08;52.93;102028.63;4918782;28;123411;-74
2021/07/20 02:58:43;;;;;;;13.15;6.22;;;;;;;17.06;53.01;102035.88;4915268;28;124528;-74
2021/07/20 03:01:15;;;;;;;12.98;6.80;;;;;;;17.05;52.98;102034.16;4914642;28;119567;-74
2021/07/20 03:03:43;;;;;;;12.73;6.05;;;;;;;17.03;52.92;102041.41;4898640;28;118456;-74
2021/07/20 03:06:13;;;;;;;14.13;6.82;;;;;;;17.00;52.95;102041.56;4913834;28;122671;-74
2021/07/20 03:08:44;;;;;;;15.82;6.75;;;;;;;16.98;52.99;102038.94;4915787;28;124078;-74
2021/07/20 03:11:31;;;;;;;13.23;6.20;;;;;;;16.93;53.20;102039.22;4902136;28;119542;-74
2021/07/20 03:14:05;;;;;;;14.20;6.63;;;;;;;16.92;53.32;102040.13;4925571;28;118263;-74
2021/07/20 03:16:37;;;;;;;13.02;6.75;;;;;;;16.90;53.22;102042.03;4912697;28;124135;-74
2021/07/20 03:19:07;;;;;;;15.88;6.40;;;;;;;16.90;53.25;102047.38;4914531;28;123601;-74
2021/07/20 03:21:37;;;;;;;13.20;6.60;;;;;;;16.87;53.31;102047.53;4915202;28;119863;-74
2021/07/20 03:24:07;;;;;;;15.75;7.35;;;;;;;16.85;53.27;102044.06;4907802;28;119120;-75
2021/07/20 03:26:36;;;;;;;15.48;7.13;;;;;;;16.83;53.28;102045.97;4896336;28;124049;-75
2021/07/20 03:29:06;;;;;;;15.48;6.70;;;;;;;16.82;53.38;102043.34;4895056;28;124067;-74
2021/07/20 03:31:35;;;;;;;16.65;6.97;;;;;;;16.79;53.29;102044.38;4894596;28;119766;-74
2021/07/20 03:34:04;;;;;;;15.55;7.00;;;;;;;16.77;53.25;102046.25;4922637;28;119575;-74
2021/07/20 03:36:39;;;;;;;19.65;7.47;;;;;;;16.74;53.57;102041.06;4895330;28;123126;-74
2021/07/20 03:39:09;;;;;;;14.30;6.70;;;;;;;16.72;53.59;102048.31;4909914;28;123835;-74
2021/07/20 03:41:38;;;;;;;14.80;7.22;;;;;;;16.71;53.69;102051.94;4910674;28;119476;-74
2021/07/20 03:44:07;;;;;;;14.00;6.75;;;;;;;16.69;53.62;102045.81;4905913;28;118406;-74
2021/07/20 03:46:34;;;;;;;17.38;7.80;;;;;;;16.67;53.67;102051.22;4900072;28;123046;-74
2021/07/20 03:49:03;;;;;;;16.55;7.78;;;;;;;16.65;53.60;102052.25;4911643;28;122925;-74
2021/07/20 03:51:36;;;;;;;16.65;7.25;;;;;;;16.64;53.75;102050.53;4897100;28;118692;-74
2021/07/20 03:54:07;;;;;;;19.05;7.45;;;;;;;16.63;53.66;102048.78;4919608;28;118736;-74
2021/07/20 03:56:36;;;;;;;16.88;7.28;;;;;;;16.61;54.14;102040.81;4916472;28;123562;-74
2021/07/20 03:59:08;;;;;;;19.23;7.55;;;;;;;16.61;53.96;102045.31;4927435;28;124705;-74
2021/07/20 04:01:57;;;;;;;16.98;7.63;;;;;;;16.61;54.04;102050.66;4926775;28;119941;-74
2021/07/20 04:04:34;;;;;;;17.15;7.43;;;;;;;16.60;54.30;102048.97;4909529;28;119224;-74
2021/07/20 04:07:14;;;;;;;16.67;7.40;;;;;;;16.59;54.53;102050.75;4924637;28;123351;-74
2021/07/20 04:10:01;;;;;;;17.30;8.02;;;;;;;16.59;54.17;102047.22;4921736;28;122113;-74
2021/07/20 04:12:47;;;;;;;19.33;7.50;;;;;;;16.55;54.32;102047.34;4920061;28;119520;-74
2021/07/20 04:15:30;;;;;;;18.45;7.85;;;;;;;16.54;54.36;102044.78;4898767;28;118841;-74
2021/07/20 04:18:04;;;;;;;21.88;8.18;;;;;;;16.54;54.49;102048.31;4925601;28;122636;-74
2021/07/20 04:20:32;;;;;;;22.00;7.78;;;;;;;16.54;54.67;102042.97;4926972;28;123334;-74
2021/07/20 04:22:59;;;;;;;19.02;7.53;;;;;;;16.55;54.70;102042.00;4924495;28;119444;-74
2021/07/20 04:25:30;;;;;;;17.42;7.72;;;;;;;16.54;54.78;102040.28;4892247;28;118560;-74
2021/07/20 04:28:05;;;;;;;18.17;7.83;;;;;;;16.57;54.99;102049.09;4916933;28;122413;-74
2021/07/20 04:30:41;;;;;;;19.90;8.60;;;;;;;16.59;55.10;102044.53;4902152;28;123365;-74
2021/07/20 04:33:13;;;;;;;17.55;7.60;;;;;;;16.61;55.28;102050.66;4911014;28;118263;-74
2021/07/20 04:36:00;;;;;;;18.50;8.13;;;;;;;16.64;55.17;102045.16;4891467;28;118377;-74
2021/07/20 04:38:31;;;;;;;21.77;7.82;;;;;;;16.66;55.61;102053.97;4917345;28;123377;-74
2021/07/20 04:40:59;;;;;;;18.35;8.43;;;;;;;16.69;55.42;102051.16;4897185;28;123415;-74
2021/07/20 04:43:28;;;;;;;18.85;8.50;;;;;;;16.72;55.47;102059.00;4898650;28;118491;-74
2021/07/20 04:45:57;;;;;;;18.55;8.15;;;;;;;16.73;55.45;102055.41;4909204;28;118927;-74
2021/07/20 04:48:25;;;;;;;19.33;8.93;;;;;;;16.76;55.60;102060.56;4909654;28;124179;-74
2021/07/20 04:50:59;;;;;;;17.67;7.73;;;;;;;16.79;55.54;102057.75;4905805;28;123430;-74
2021/07/20 04:53:27;;;;;;;19.27;8.40;;;;;;;16.83;55.86;102061.16;4905091;28;119894;-74
2021/07/20 04:55:54;;;;;;;20.83;8.43;;;;;;;16.85;55.94;102060.13;4908049;28;118441;-74
2021/07/20 04:58:24;;;;;;;20.63;8.82;;;;;;;16.88;55.99;102059.97;4908499;28;123844;-74
2021/07/20 05:00:53;;;;;;;20.80;8.57;;;;;;;16.92;56.14;102061.56;4910346;28;124008;-74
2021/07/20 05:03:24;;;;;;;20.75;9.02;;;;;;;16.97;56.36;102057.75;4910934;28;118549;-74
2021/07/20 05:05:54;;;;;;;20.73;8.70;;;;;;;17.02;56.36;102066.41;4912524;28;118936;-74
2021/07/20 05:08:23;;;;;;;21.23;9.27;;;;;;;17.06;56.34;102062.63;4909754;28;123713;-74
2021/07/20 05:10:58;;;;;;;22.38;8.98;;;;;;;17.09;56.55;102067.84;4907841;28;124477;-74
2021/07/20 05:13:33;;;;;;;19.83;8.70;;;;;;;17.14;56.31;102063.13;4895617;28;119927;-74
2021/07/20 05:16:03;;;;;;;21.55;8.45;;;;;;;17.19;56.76;102069.06;4910109;28;119142;-74
2021/07/20 05:18:46;;;;;;;18.33;8.07;;;;;;;17.25;56.47;102068.75;4908256;28;123451;-75
2021/07/20 05:21:44;;;;;;;20.08;9.02;;;;;;;17.30;56.34;102066.69;4888973;28;124949;-75
2021/07/20 05:24:15;;;;;;;24.90;9.95;;;;;;;17.36;56.64;102064.63;4921786;28;119642;-74
2021/07/20 05:27:00;;;;;;;22.40;8.95;;;;;;;17.42;56.67;102066.97;4908167;28;119011;-75
2021/07/20 05:29:30;;;;;;;19.42;8.60;;;;;;;17.48;56.43;102074.69;4909248;28;123941;-75
2021/07/20 05:32:10;;;;;;;19.70;8.73;;;;;;;17.52;56.60;102070.88;4909615;28;123135;-74
2021/07/20 05:34:38;;;;;;;21.08;9.10;;;;;;;17.56;56.55;102069.75;4909394;28;118331;-74
2021/07/20 05:37:05;;;;;;;22.23;9.40;;;;;;;17.61;56.82;102075.75;4895130;28;118543;-75
2021/07/20 05:39:47;;;;;;;22.30;9.93;;;;;;;17.68;56.78;102066.38;4907548;28;124413;-74
2021/07/20 05:42:19;;;;;;;23.10;9.32;;;;;;;17.75;56.84;102066.06;4907950;28;123358;-75
2021/07/20 05:44:48;;;;;;;19.33;8.95;;;;;;;17.82;56.67;102072.78;4908185;28;118845;-75
2021/07/20 05:47:15;;;;;;;23.25;9.18;;;;;;;17.89;56.97;102079.56;4909558;28;119291;-75
2021/07/20 05:50:00;;;;;;;23.27;9.05;;;;;;;17.99;57.11;102080.81;4895989;28;123861;-75
2021/07/20 05:52:30;;;;;;;21.98;9.38;;;;;;;18.05;56.87;102080.44;4907819;28;125127;-75
2021/07/20 05:55:04;;;;;;;19.65;8.63;;;;;;;18.14;56.87;102081.75;4916211;28;118761;-75
2021/07/20 05:57:32;;;;;;;21.15;8.68;;;;;;;18.22;56.94;102081.31;4909177;28;119033;-75
2021/07/20 06:00:13;;;;;;;16.98;8.20;;;;;;;18.32;56.79;102081.63;4907119;28;124296;-76
2021/07/20 06:02:56;;;;;;;19.80;8.57;;;;;;;18.41;56.52;102076.59;4908798;28;122430;-75
2021/07/20 06:05:27;;;;;;;18.77;7.93;;;;;;;18.48;56.62;102083.34;4909613;28;120690;-74
2021/07/20 06:07:56;;;;;;;16.27;7.65;;;;;;;18.53;56.19;102084.88;4908358;28;120248;-74
2021/07/20 06:10:24;;;;;;;16.85;7.57;;;;;;;18.59;55.83;102084.50;4910169;28;124146;-75
2021/07/20 06:12:52;;;;;;;18.23;7.65;;;;;;;18.65;56.08;102090.38;4910178;28;123812;-75
2021/07/20 06:15:20;;;;;;;19.33;8.27;;;;;;;18.73;55.88;102087.25;4907936;28;118626;-75
2021/07/20 06:17:47;;;;;;;18.25;7.97;;;;;;;18.80;55.79;102088.66;4893141;28;119118;-75
2021/07/20 06:20:15;;;;;;;16.65;7.63;;;;;;;18.90;55.93;102082.72;4909966;28;123826;-75
2021/07/20 06:22:54;;;;;;;17.88;7.55;;;;;;;19.00;55.76;102083.88;4910620;28;124448;-75
2021/07/20 06:25:25;;;;;;;16.17;7.93;;;;;;;19.09;55.78;102091.38;4920640;28;119789;-74
2021/07/20 06:27:54;;;;;;;16.52;7.53;;;;;;;19.20;55.51;102091.59;4909845;28;118794;-74
2021/07/20 06:30:21;;;;;;;13.90;6.60;;;;;;;19.32;55.10;102099.84;4909675;28;124476;-75
2021/07/20 06:32:50;;;;;;;15.52;7.22;;;;;;;19.43;54.89;102091.97;4919334;28;124252;-75
2021/07/20 06:35:18;;;;;;;14.48;6.50;;;;;;;19.52;54.62;102101.31;4906343;28;119146;-74
2021/07/20 06:37:47;;;;;;;14.93;6.53;;;;;;;19.62;54.61;102097.06;4916192;28;118546;-75
2021/07/20 06:40:17;;;;;;;15.30;6.45;;;;;;;19.74;54.38;102100.81;4915503;28;124481;-75
2021/07/20 06:42:44;;;;;;;14.63;7.13;;;;;;;19.87;54.03;102101.75;4908635;28;124349;-75
2021/07/20 06:45:15;;;;;;;15.82;6.70;;;;;;;19.99;53.84;102103.66;4903866;28;118516;-75
2021/07/20 06:47:46;;;;;;;16.70;7.43;;;;;;;20.14;53.78;102100.94;4894593;28;119309;-75
2021/07/20 06:50:19;;;;;;;14.52;6.85;;;;;;;20.29;53.33;102102.63;4906589;28;124913;-75
2021/07/20 06:52:48;;;;;;;16.02;7.07;;;;;;;20.40;53.29;102100.09;4907971;28;121340;-74
2021/07/20 06:55:16;;;;;;;12.50;6.40;;;;;;;20.54;53.18;102101.00;4907304;28;120588;-75
2021/07/20 06:57:46;;;;;;;16.17;6.82;;;;;;;20.69;52.90;102105.38;4914543;28;120866;-74
2021/07/20 07:00:17;;;;;;;15.32;6.82;;;;;;;20.82;52.83;102104.53;4901471;28;124199;-74
2021/07/20 07:02:48;;;;;;;18.38;7.68;;;;;;;20.96;52.03;102101.75;4904896;28;124196;-74
2021/07/20 07:05:17;;;;;;;12.05;6.10;;;;;;;21.07;52.06;102104.56;4922124;28;119584;-74
2021/07/20 07:07:46;;;;;;;12.45;6.40;;;;;;;21.18;51.87;102106.50;4906776;28;118968;-74
2021/07/20 07:10:15;;;;;;;13.40;6.53;;;;;;;21.29;51.27;102108.47;4904723;28;123965;-75
2021/07/20 07:12:46;;;;;;;13.93;6.57;;;;;;;21.36;50.91;102109.72;4898619;28;123769;-75
2021/07/20 07:15:14;;;;;;;12.45;6.35;;;;;;;21.44;50.55;102112.78;4910575;28;119933;-75
2021/07/20 07:17:41;;;;;;;13.90;6.45;;;;;;;21.52;50.51;102110.41;4912369;28;119131;-75
2021/07/20 07:20:14;;;;;;;16.20;6.80;;;;;;;21.58;50.00;102109.97;4914945;28;123685;-75
2021/07/20 07:22:42;;;;;;;13.27;6.45;;;;;;;21.66;50.28;102116.63;4911925;28;123074;-75
2021/07/20 07:25:10;;;;;;;13.82;6.85;;;;;;;21.73;49.94;102110.69;4912645;28;119585;-75
2021/07/20 07:27:38;;;;;;;11.82;6.32;;;;;;;21.84;50.07;102120.72;4911908;28;119175;-74
2021/07/20 07:30:07;;;;;;;12.90;7.00;;;;;;;21.95;49.92;102120.78;4921380;28;123845;-75
2021/07/20 07:32:37;;;;;;;13.32;7.07;;;;;;;22.07;49.22;102115.47;4915249;28;124957;-75
2021/07/20 07:35:06;;;;;;;12.45;6.03;;;;;;;22.14;49.42;102111.34;4894939;28;118134;-75
2021/07/20 07:37:34;;;;;;;12.75;6.95;;;;;;;22.24;49.03;102116.91;4910269;28;118186;-75
2021/07/20 07:40:05;;;;;;;12.95;6.72;;;;;;;22.31;49.01;102124.47;4905517;28;124226;-75
2021/07/20 07:42:35;;;;;;;15.85;7.15;;;;;;;22.43;49.09;102121.84;4891906;28;122854;-74
2021/07/20 07:45:04;;;;;;;14.70;7.38;;;;;;;22.53;48.96;102112.09;4898557;28;120673;-75
2021/07/20 07:47:32;;;;;;;13.02;6.50;;;;;;;22.59;48.28;102117.00;4912160;28;119849;-75
2021/07/20 07:50:01;;;;;;;11.77;6.18;;;;;;;22.61;47.94;102119.59;4891385;28;123516;-75
2021/07/20 07:52:28;;;;;;;12.90;6.53;;;;;;;22.62;47.52;102116.78;4912423;28;123469;-75
2021/07/20 07:54:56;;;;;;;13.20;7.15;;;;;;;22.66;47.55;102109.28;4910568;28;118395;-75
2021/07/20 07:57:23;;;;;;;13.60;7.10;;;;;;;22.71;47.64;102113.34;4911690;28;119122;-75
2021/07/20 07:59:55;;;;;;;14.32;7.00;;;;;;;22.82;47.60;102111.69;4893464;28;123149;-75
2021/07/20 08:02:29;;;;;;;15.95;7.53;;;;;;;22.92;47.12;102118.09;4910377;28;123421;-75
2021/07/20 08:04:58;;;;;;;14.65;7.13;;;;;;;22.98;46.90;102117.66;4922754;28;119273;-75
2021/07/20 08:07:27;;;;;;;15.63;7.18;;;;;;;23.03;46.65;102115.44;4910279;28;118945;-75
2021/07/20 08:09:56;;;;;;;14.55;7.80;;;;;;;23.10;46.58;102116.69;4909532;28;123594;-75
2021/07/20 08:12:26;;;;;;;13.32;7.15;;;;;;;23.17;46.64;102116.22;4910112;28;123141;-75
2021/07/20 08:14:53;;;;;;;12.10;6.68;;;;;;;23.23;46.29;102116.59;4920919;28;119043;-75
2021/07/20 08:17:22;;;;;;;14.73;6.90;;;;;;;23.27;45.89;102122.63;4909992;28;118479;-75
2021/07/20 08:19:51;;;;;;;11.98;7.10;;;;;;;23.30;45.79;102122.38;4911750;28;124446;-75
2021/07/20 08:22:19;;;;;;;13.40;7.57;;;;;;;23.32;45.57;102115.03;4911672;28;124093;-75
2021/07/20 08:24:57;;;;;;;13.02;6.70;;;;;;;23.36;45.57;102116.50;4897673;28;118181;-75
2021/07/20 08:27:40;;;;;;;15.55;7.28;;;;;;;23.42;45.68;102121.41;4909573;28;118807;-75
2021/07/20 08:30:08;;;;;;;14.02;7.00;;;;;;;23.51;45.77;102122.53;4909835;28;123843;-75
2021/07/20 08:32:44;;;;;;;12.15;6.82;;;;;;;23.59;45.61;102122.78;4912468;28;123977;-75
2021/07/20 08:35:18;;;;;;;12.60;7.40;;;;;;;23.71;45.20;102115.50;4903715;28;119302;-75
2021/07/20 08:37:54;;;;;;;11.07;6.90;;;;;;;23.79;45.03;102118.50;4909555;28;120331;-75
2021/07/20 08:40:32;;;;;;;13.20;7.20;;;;;;;23.85;45.15;102117.16;4911396;28;123939;-75
2021/07/20 08:43:22;;;;;;;13.82;7.05;;;;;;;23.95;45.30;102117.25;4905209;28;123641;-75
2021/07/20 08:46:13;;;;;;;12.82;7.15;;;;;;;24.05;45.06;102123.63;4910791;28;119717;-75
2021/07/20 08:48:56;;;;;;;11.63;6.22;;;;;;;24.15;45.07;102113.78;4902554;28;118154;-75
2021/07/20 08:51:29;;;;;;;12.63;6.93;;;;;;;24.28;44.75;102114.47;4910465;28;124125;-75
2021/07/20 08:54:02;;;;;;;13.43;6.28;;;;;;;24.40;44.76;102111.72;4911516;28;124724;-74
2021/07/20 08:56:31;;;;;;;12.43;6.93;;;;;;;24.55;44.53;102121.28;4909367;28;119127;-75
2021/07/20 08:59:07;;;;;;;11.13;6.15;;;;;;;24.63;43.70;102121.50;4909901;28;119110;-75
2021/07/20 09:01:42;;;;;;;;;;;;;;;24.63;44.43;102124.19;4909290;28;124542;-75
2021/07/20 09:04:11;;;;;;;;;;;;;;;24.64;44.74;102131.34;4918837;28;123612;-75
2021/07/20 09:06:47;;;;;;;13.20;7.03;;;;;;;24.64;43.85;102131.34;4900816;28;120121;-75
2021/07/20 09:09:24;;;;;;;12.45;6.85;;;;;;;24.57;43.37;102127.44;4889492;28;118934;-75
2021/07/20 09:12:12;;;;;;;14.48;6.68;;;;;;;24.49;43.71;102121.78;4904605;28;124358;-75
2021/07/20 09:15:04;;;;;;;12.98;6.65;;;;;;;24.47;43.54;102123.75;4909120;28;123200;-75
2021/07/20 09:18:08;;;;;;;13.35;7.10;;;;;;;24.51;44.11;102125.22;4908097;28;118885;-75
2021/07/20 09:20:39;;;;;;;14.45;6.90;;;;;;;24.61;43.77;102125.34;4905280;28;118967;-75
2021/07/20 09:23:08;;;;;;;12.18;6.85;;;;;;;24.70;44.07;102129.13;4909039;28;124031;-75
2021/07/20 09:25:41;;;;;;;11.82;7.30;;;;;;;24.77;42.51;102130.28;4900631;28;122845;-75
2021/07/20 09:28:16;;;;;;;11.07;6.25;;;;;;;24.72;42.69;102132.56;4908028;28;120550;-75
2021/07/20 09:30:48;;;;;;;13.85;6.35;;;;;;;24.70;43.13;102129.13;4906770;28;120182;-75
2021/07/20 09:33:52;;;;;;;13.40;7.15;;;;;;;24.71;43.50;102136.25;4909414;28;124607;-75
2021/07/20 09:36:32;;;;;;;13.82;6.75;;;;;;;24.81;42.77;102120.94;4907023;28;124545;-75
2021/07/20 09:39:20;;;;;;;13.75;7.28;;;;;;;24.86;42.29;102129.50;4910569;28;119650;-75
2021/07/20 09:42:01;;;;;;;10.88;5.70;;;;;;;24.89;42.21;102126.56;4907590;28;118800;-75
2021/07/20 09:44:44;;;;;;;13.13;7.25;;;;;;;24.92;42.52;102129.00;4908383;28;123231;-75
2021/07/20 09:47:35;;;;;;;12.52;6.28;;;;;;;25.00;42.46;102125.63;4902750;28;124041;-75
2021/07/20 09:50:15;;;;;;;11.75;6.03;;;;;;;25.08;42.19;102122.25;4909699;28;119540;-75
2021/07/20 09:53:22;;;;;;;11.68;6.20;;;;;;;25.16;42.04;102108.88;4907318;28;119859;-75
2021/07/20 09:56:38;;;;;;;13.63;6.47;;;;;;;25.25;41.92;102116.25;4904049;28;124427;-75
2021/07/20 09:59:17;;;;;;;9.35;5.60;;;;;;;25.31;41.84;102115.72;4896210;28;122625;-75
2021/07/20 10:01:57;;;;;;;13.07;6.90;;;;;;;25.35;41.39;102119.00;4912472;28;118254;-74
2021/07/20 10:04:36;;;;;;;12.30;6.45;;;;;;;25.40;41.67;102112.19;4893313;28;117854;-75
2021/07/20 10:07:06;;;;;;;11.35;6.20;;;;;;;25.45;41.22;102115.38;4907237;28;124043;-75
2021/07/20 10:09:40;;;;;;;10.90;6.03;;;;;;;25.48;41.05;102114.22;4900154;28;123987;-75
2021/07/20 10:12:16;;;;;;;11.45;6.57;;;;;;;25.53;41.17;102117.41;4894709;28;119969;-75
2021/07/20 10:15:05;;;;;;;10.77;5.95;;;;;;;25.57;40.79;102112.56;4908440;28;119689;-75
2021/07/20 10:17:50;;;;;;;12.45;6.30;;;;;;;25.63;40.98;102112.00;4909986;28;124627;-75
2021/07/20 10:20:30;;;;;;;12.75;6.72;;;;;;;25.66;40.49;102110.88;4895040;28;124543;-75
2021/07/20 10:23:02;;;;;;;11.63;5.93;;;;;;;25.64;40.20;102108.31;4907193;28;120232;-74
2021/07/20 10:25:43;;;;;;;11.32;5.93;;;;;;;25.64;39.96;102108.31;4909035;28;119401;-75
2021/07/20 10:28:14;;;;;;;10.60;6.15;;;;;;;25.66;40.00;102106.31;4909809;28;123711;-75
2021/07/20 10:30:50;;;;;;;11.60;6.75;;;;;;;25.67;39.57;102108.00;4907983;28;123863;-74
2021/07/20 10:33:40;;;;;;;11.30;5.95;;;;;;;25.64;40.16;102108.31;4909403;28;118245;-75
2021/07/20 10:36:21;;;;;;;11.68;6.43;;;;;;;25.67;39.83;102102.59;4908974;28;118402;-75
2021/07/20 10:38:52;;;;;;;10.80;6.28;;;;;;;25.66;39.22;102100.88;4892370;28;124072;-75
2021/07/20 10:41:28;;;;;;;10.63;6.50;;;;;;;25.68;39.42;102095.31;4907096;28;123943;-75
2021/07/20 10:44:02;;;;;;;11.75;6.50;;;;;;;25.74;39.89;102098.31;4911037;28;120220;-75
2021/07/20 10:46:32;;;;;;;13.63;7.00;;;;;;;25.86;39.86;102106.38;4908027;28;118753;-75
2021/07/20 10:49:08;;;;;;;11.05;5.85;;;;;;;25.95;39.33;102106.41;4910639;28;124654;-75
2021/07/20 10:51:41;;;;;;;11.73;6.78;;;;;;;26.00;39.34;102103.31;4911759;28;124609;-75
2021/07/20 10:54:19;;;;;;;13.82;6.88;;;;;;;26.04;39.56;102104.72;4911149;28;119328;-75
2021/07/20 10:56:58;;;;;;;11.05;6.60;;;;;;;26.10;39.66;102098.72;4920394;28;119479;-75
2021/07/20 10:59:42;;;;;;;11.43;6.28;;;;;;;26.15;39.48;102096.47;4910908;28;123120;-74
2021/07/20 11:02:28;;;;;;;11.27;6.38;;;;;;;26.15;39.64;102101.91;4910366;28;123910;-74
2021/07/20 11:05:06;;;;;;;13.27;6.45;;;;;;;26.19;39.93;102102.47;4912073;28;119598;-74
2021/07/20 11:07:52;;;;;;;10.32;5.97;;;;;;;26.23;39.32;102091.16;4922620;28;118556;-74
2021/07/20 11:10:27;;;;;;;;;;;;;;;26.29;40.43;102097.03;4910514;28;124499;-74
2021/07/20 11:12:59;;;;;;;10.53;5.97;;;;;;;26.36;39.31;102093.63;4911852;28;124399;-74
2021/07/20 11:15:29;;;;;;;10.50;6.30;;;;;;;26.38;39.17;102096.19;4909184;28;120370;-75
2021/07/20 11:18:00;;;;;;;11.25;6.25;;;;;;;26.38;38.53;102091.63;4908049;28;120389;-75
2021/07/20 11:20:31;;;;;;;10.77;6.47;;;;;;;26.35;38.59;102091.03;4904034;28;123088;-74
2021/07/20 11:22:59;;;;;;;13.77;6.63;;;;;;;26.34;38.48;102094.78;4913023;28;123768;-74
2021/07/20 11:25:27;;;;;;;11.85;6.97;;;;;;;26.35;38.93;102096.47;4913250;28;119524;-75
2021/07/20 11:27:58;;;;;;;10.65;6.00;;;;;;;26.35;38.57;102094.63;4910464;28;117873;-75
2021/07/20 11:30:30;;;;;;;11.18;6.55;;;;;;;26.33;38.08;102093.03;4902377;28;123023;-75
2021/07/20 11:33:01;;;;;;;12.18;6.75;;;;;;;26.32;38.86;102096.78;4911512;28;122743;-75
2021/07/20 11:35:35;;;;;;;10.80;6.13;;;;;;;26.34;38.34;102094.78;4912926;28;119867;-75
2021/07/20 11:38:10;;;;;;;10.75;6.28;;;;;;;26.39;38.52;102097.91;4910240;28;118952;-75
2021/07/20 11:40:50;;;;;;;10.20;6.13;;;;;;;26.47;38.12;102100.78;4912176;28;124019;-75